createdAt,value
2022-12-20T00:01:37.282Z,100230.19
2022-12-20T00:04:06.864Z,100230.31
2022-12-20T00:06:35.475Z,100224.84
2022-12-20T00:09:03.879Z,100221.13
2022-12-20T00:11:31.776Z,100207.66
2022-12-20T00:13:59.691Z,100205.75
2022-12-20T00:16:28.487Z,100195.25
2022-12-20T00:18:57.819Z,100192.28
2022-12-20T00:21:27.202Z,100186.84
2022-12-20T00:23:55.521Z,100185.06
2022-12-20T00:26:25.692Z,100179.78
2022-12-20T00:28:53.865Z,100184.94
2022-12-20T00:31:22.938Z,100188.47
2022-12-20T00:33:51.683Z,100200.09
2022-12-20T00:36:19.750Z,100206.44
2022-12-20T00:38:49.189Z,100202.31
2022-12-20T00:41:18.128Z,100225.50
2022-12-20T00:43:46.040Z,100238.22
2022-12-20T00:46:14.479Z,100249.78
2022-12-20T00:48:42.394Z,100280.09
2022-12-20T00:51:11.219Z,100289.53
2022-12-20T00:53:39.495Z,100269.22
2022-12-20T00:56:09.232Z,100291.34
2022-12-20T00:58:38.287Z,100283.00
2022-12-20T01:01:07.064Z,100266.53
2022-12-20T01:03:35.158Z,100269.66
2022-12-20T01:06:03.348Z,100268.75
2022-12-20T01:08:31.816Z,100275.28
2022-12-20T01:11:00.905Z,100253.56
2022-12-20T01:13:30.434Z,100277.81
2022-12-20T01:15:58.411Z,100281.31
2022-12-20T01:18:26.545Z,100301.69
2022-12-20T01:21:02.232Z,100304.06
2022-12-20T01:23:30.446Z,100306.31
2022-12-20T01:25:59.824Z,100304.81
2022-12-20T01:28:27.852Z,100307.81
2022-12-20T01:30:57.123Z,100305.31
2022-12-20T01:33:25.087Z,100298.28
2022-12-20T01:35:57.523Z,100283.16
2022-12-20T01:38:25.440Z,100278.34
2022-12-20T01:40:53.504Z,100271.94
2022-12-20T01:43:21.602Z,100262.94
2022-12-20T01:45:49.636Z,100261.13
2022-12-20T01:48:22.770Z,100244.38
2022-12-20T01:50:50.663Z,100246.25
2022-12-20T01:53:18.724Z,100247.91
2022-12-20T01:55:47.917Z,100244.75
2022-12-20T01:58:15.927Z,100240.78
2022-12-20T02:00:43.896Z,100234.97
2022-12-20T02:03:14.034Z,100223.59
2022-12-20T02:05:44.413Z,100220.31
2022-12-20T02:08:13.193Z,100219.13
2022-12-20T02:10:47.952Z,100229.34
2022-12-20T02:13:21.054Z,100234.56
2022-12-20T02:15:51.095Z,100250.19
2022-12-20T02:18:23.075Z,100247.72
2022-12-20T02:21:02.444Z,100251.41
2022-12-20T02:24:04.905Z,100267.22
2022-12-20T02:26:56.004Z,100262.06
2022-12-20T02:29:26.380Z,100261.97
2022-12-20T02:31:59.313Z,100271.41
2022-12-20T02:34:27.390Z,100264.38
2022-12-20T02:36:59.206Z,100262.66
2022-12-20T02:39:27.538Z,100266.38
2022-12-20T02:41:56.327Z,100269.19
2022-12-20T02:44:43.518Z,100272.28
2022-12-20T02:47:15.157Z,100293.03
2022-12-20T02:49:43.110Z,100297.53
2022-12-20T02:52:11.034Z,100304.19
2022-12-20T02:54:38.908Z,100319.47
2022-12-20T02:57:09.396Z,100308.38
2022-12-20T02:59:38.688Z,100324.47
2022-12-20T03:02:06.822Z,100330.09
2022-12-20T03:04:36.486Z,100333.88
2022-12-20T03:07:05.867Z,100336.94
2022-12-20T03:09:34.830Z,100349.81
2022-12-20T03:12:02.691Z,100349.19
2022-12-20T03:14:30.629Z,100351.94
2022-12-20T03:16:58.730Z,100357.50
2022-12-20T03:19:26.688Z,100340.66
2022-12-20T03:21:55.998Z,100348.75
2022-12-20T03:24:23.939Z,100354.22
2022-12-20T03:26:51.809Z,100358.72
2022-12-20T03:29:19.717Z,100357.75
2022-12-20T03:31:47.604Z,100359.53
2022-12-20T03:34:15.503Z,100366.59
2022-12-20T03:36:43.459Z,100372.78
2022-12-20T03:39:13.177Z,100370.97
2022-12-20T03:41:41.074Z,100369.41
2022-12-20T03:44:09.047Z,100376.75
2022-12-20T03:46:37.124Z,100376.84
2022-12-20T03:49:05.009Z,100377.88
2022-12-20T03:51:32.916Z,100378.03
2022-12-20T03:54:00.824Z,100378.19
2022-12-20T03:56:30.077Z,100382.94
2022-12-20T03:58:57.982Z,100397.41
2022-12-20T04:01:26.977Z,100399.69
2022-12-20T04:03:55.594Z,100397.31
2022-12-20T04:06:23.949Z,100403.66
2022-12-20T04:08:51.870Z,100408.25
2022-12-20T04:11:19.787Z,100410.88
2022-12-20T04:13:49.752Z,100418.03
2022-12-20T04:16:18.927Z,100420.06
2022-12-20T04:18:46.844Z,100420.31
2022-12-20T04:21:14.893Z,100428.41
2022-12-20T04:23:43.441Z,100420.81
2022-12-20T04:26:13.338Z,100429.03
2022-12-20T04:28:41.328Z,100437.22
2022-12-20T04:31:11.060Z,100439.00
2022-12-20T04:33:39.086Z,100441.09
2022-12-20T04:36:07.318Z,100439.38
2022-12-20T04:38:35.226Z,100451.88
2022-12-20T04:41:03.160Z,100451.16
2022-12-20T04:43:31.037Z,100452.16
2022-12-20T04:45:59.086Z,100455.75
2022-12-20T04:51:16.970Z,100466.72
2022-12-20T04:53:49.859Z,100453.00
2022-12-20T04:56:18.701Z,100462.19
2022-12-20T04:58:46.895Z,100454.63
2022-12-20T05:01:14.832Z,100468.25
2022-12-20T05:03:44.269Z,100463.31
2022-12-20T05:06:12.213Z,100465.47
2022-12-20T05:08:40.127Z,100465.88
2022-12-20T05:11:08.009Z,100479.91
2022-12-20T05:13:36.074Z,100472.16
2022-12-20T05:16:04.170Z,100484.66
2022-12-20T05:18:32.130Z,100479.47
2022-12-20T05:21:19.585Z,100491.28
2022-12-20T05:24:04.655Z,100489.88
2022-12-20T05:26:33.828Z,100486.56
2022-12-20T05:29:01.742Z,100490.09
2022-12-20T05:31:29.630Z,100463.22
2022-12-20T05:33:57.604Z,100491.56
2022-12-20T05:36:27.129Z,100488.47
2022-12-20T05:39:00.105Z,100494.31
2022-12-20T05:41:31.729Z,100499.31
2022-12-20T05:43:59.704Z,100493.00
2022-12-20T05:46:27.669Z,100497.91
2022-12-20T05:48:55.862Z,100499.56
2022-12-20T05:51:24.052Z,100500.41
2022-12-20T05:53:53.343Z,100513.72
2022-12-20T05:56:21.258Z,100517.16
2022-12-20T05:58:49.169Z,100521.56
2022-12-20T06:01:17.093Z,100523.44
2022-12-20T06:03:45.827Z,100512.16
2022-12-20T06:06:14.843Z,100522.72
2022-12-20T06:08:43.410Z,100528.03
2022-12-20T06:11:12.670Z,100536.81
2022-12-20T06:13:40.576Z,100535.78
2022-12-20T06:16:08.765Z,100537.59
2022-12-20T06:18:36.663Z,100539.47
2022-12-20T06:21:04.982Z,100543.00
2022-12-20T06:23:34.202Z,100542.22
2022-12-20T06:26:02.127Z,100544.16
2022-12-20T06:28:31.462Z,100549.69
2022-12-20T06:30:59.420Z,100548.31
2022-12-20T06:33:27.423Z,100551.19
2022-12-20T06:35:55.305Z,100553.31
2022-12-20T06:38:23.236Z,100556.13
2022-12-20T06:40:51.145Z,100559.06
2022-12-20T06:43:19.011Z,100557.56
2022-12-20T06:45:48.353Z,100562.13
2022-12-20T06:48:16.236Z,100558.59
2022-12-20T06:50:44.133Z,100562.91
2022-12-20T06:53:12.078Z,100561.09
2022-12-20T06:55:40.572Z,100569.91
2022-12-20T06:58:08.517Z,100573.53
2022-12-20T07:00:36.608Z,100571.88
2022-12-20T07:03:06.089Z,100574.44
2022-12-20T07:05:34.138Z,100584.38
2022-12-20T07:08:05.492Z,100581.03
2022-12-20T07:10:34.592Z,100591.78
2022-12-20T07:13:02.433Z,100592.00
2022-12-20T07:15:30.492Z,100591.31
2022-12-20T07:17:58.402Z,100591.44
2022-12-20T07:20:27.736Z,100597.66
2022-12-20T07:22:55.726Z,100583.75
2022-12-20T07:25:24.748Z,100595.16
2022-12-20T07:27:52.744Z,100588.03
2022-12-20T07:30:21.398Z,100597.88
2022-12-20T07:32:49.623Z,100599.81
2022-12-20T07:35:18.459Z,100597.25
2022-12-20T07:37:47.724Z,100593.81
2022-12-20T07:40:16.413Z,100595.50
2022-12-20T07:42:48.510Z,100597.38
2022-12-20T07:45:17.142Z,100607.00
2022-12-20T07:47:45.052Z,100611.38
2022-12-20T07:50:13.101Z,100614.91
2022-12-20T07:52:41.316Z,100625.69
2022-12-20T07:55:11.417Z,100631.00
2022-12-20T07:57:41.969Z,100619.06
2022-12-20T08:00:10.867Z,100639.19
2022-12-20T08:02:40.363Z,100634.72
2022-12-20T08:05:09.314Z,100644.22
2022-12-20T08:07:37.240Z,100646.97
2022-12-20T08:10:06.249Z,100652.28
2022-12-20T08:12:35.565Z,100638.13
2022-12-20T08:15:03.625Z,100626.38
2022-12-20T08:17:31.499Z,100658.59
2022-12-20T08:20:00.630Z,100649.00
2022-12-20T08:22:28.632Z,100657.06
2022-12-20T08:24:56.573Z,100658.00
2022-12-20T08:27:24.473Z,100663.31
2022-12-20T08:29:53.743Z,100673.00
2022-12-20T08:32:21.638Z,100679.88
2022-12-20T08:34:49.573Z,100680.84
2022-12-20T08:37:17.720Z,100678.84
2022-12-20T08:39:45.659Z,100679.78
2022-12-20T08:42:13.798Z,100697.22
2022-12-20T08:44:41.704Z,100698.09
2022-12-20T08:47:11.523Z,100715.78
2022-12-20T08:49:45.677Z,100713.16
2022-12-20T08:52:15.456Z,100721.38
2022-12-20T08:54:43.476Z,100723.38
2022-12-20T08:57:11.381Z,100721.78
2022-12-20T08:59:39.339Z,100730.66
2022-12-20T09:02:08.011Z,100727.00
2022-12-20T09:04:37.504Z,100737.25
2022-12-20T09:07:05.567Z,100739.44
2022-12-20T09:09:33.523Z,100739.94
2022-12-20T09:12:01.441Z,100737.81
2022-12-20T09:14:29.751Z,100749.91
2022-12-20T09:16:58.023Z,100747.88
2022-12-20T09:19:26.384Z,100752.22
2022-12-20T09:21:56.741Z,100751.41
2022-12-20T09:24:25.238Z,100740.78
2022-12-20T09:26:53.589Z,100753.16
2022-12-20T09:29:28.212Z,100755.75
2022-12-20T09:31:56.871Z,100761.84
2022-12-20T09:34:25.251Z,100746.75
2022-12-20T09:36:55.637Z,100749.34
2022-12-20T09:39:24.263Z,100760.66
2022-12-20T09:41:52.182Z,100751.75
2022-12-20T09:44:21.530Z,100755.06
2022-12-20T09:46:54.923Z,100757.53
2022-12-20T09:49:22.877Z,100756.66
2022-12-20T09:52:14.199Z,100760.06
2022-12-20T09:54:45.720Z,100768.69
2022-12-20T09:57:18.011Z,100762.94
2022-12-20T09:59:49.522Z,100760.66
2022-12-20T10:05:14.684Z,100767.59
2022-12-20T10:07:48.061Z,100783.84
2022-12-20T10:10:27.197Z,100788.06
2022-12-20T10:12:57.984Z,100787.97
2022-12-20T10:15:28.155Z,100782.66
2022-12-20T10:18:02.185Z,100770.19
2022-12-20T10:20:36.160Z,100779.75
2022-12-20T10:23:06.512Z,100769.06
2022-12-20T10:25:34.823Z,100772.59
2022-12-20T10:28:04.099Z,100773.97
2022-12-20T10:30:33.451Z,100785.84
2022-12-20T10:33:01.389Z,100782.03
2022-12-20T10:35:31.427Z,100784.13
2022-12-20T10:38:09.367Z,100787.25
2022-12-20T10:41:18.606Z,100788.56
2022-12-20T10:43:27.837Z,100786.63
2022-12-20T10:45:57.821Z,100783.47
2022-12-20T10:48:29.180Z,100786.19
2022-12-20T10:50:57.815Z,100783.47
2022-12-20T10:53:27.234Z,100783.94
2022-12-20T10:56:13.801Z,100786.38
2022-12-20T10:58:42.310Z,100795.81
2022-12-20T11:01:14.934Z,100786.94
2022-12-20T11:03:51.930Z,100788.63
2022-12-20T11:06:20.402Z,100786.06
2022-12-20T11:08:57.076Z,100785.28
2022-12-20T11:11:35.043Z,100759.50
2022-12-20T11:14:15.562Z,100775.78
2022-12-20T11:16:43.530Z,100776.69
2022-12-20T11:19:47.844Z,100763.28
2022-12-20T11:22:22.877Z,100780.41
2022-12-20T11:24:54.383Z,100778.59
2022-12-20T11:27:27.348Z,100775.03
2022-12-20T11:30:11.193Z,100769.66
2022-12-20T11:32:55.888Z,100773.09
2022-12-20T11:35:25.588Z,100773.84
2022-12-20T11:37:57.262Z,100762.47
2022-12-20T11:40:30.781Z,100763.69
2022-12-20T11:43:18.131Z,100760.38
2022-12-20T11:45:50.785Z,100767.63
2022-12-20T11:48:36.599Z,100767.66
2022-12-20T11:51:07.541Z,100762.47
2022-12-20T11:53:39.170Z,100753.56
2022-12-20T11:56:10.078Z,100765.81
2022-12-20T11:58:47.053Z,100766.53
2022-12-20T12:01:16.163Z,100767.84
2022-12-20T12:03:46.255Z,100769.75
2022-12-20T12:06:20.971Z,100776.50
2022-12-20T12:08:51.288Z,100760.31
2022-12-20T12:12:04.093Z,100755.69
2022-12-20T12:14:11.314Z,100757.13
2022-12-20T12:16:41.195Z,100764.91
2022-12-20T12:19:10.315Z,100766.53
2022-12-20T12:21:39.792Z,100762.88
2022-12-20T12:24:09.578Z,100754.84
2022-12-20T12:26:39.515Z,100760.88
2022-12-20T12:29:13.028Z,100758.78
2022-12-20T12:31:42.582Z,100762.50
2022-12-20T12:34:14.875Z,100755.84
2022-12-20T12:37:18.277Z,100749.56
2022-12-20T12:39:54.604Z,100750.63
2022-12-20T12:42:34.607Z,100752.56
2022-12-20T12:45:04.816Z,100756.84
2022-12-20T12:47:36.679Z,100752.41
2022-12-20T12:50:04.848Z,100742.56
2022-12-20T12:52:42.854Z,100749.53
2022-12-20T12:55:36.687Z,100750.25
2022-12-20T12:58:31.442Z,100750.31
2022-12-20T13:01:01.231Z,100752.94
2022-12-20T13:03:47.602Z,100751.50
2022-12-20T13:06:44.656Z,100749.59
2022-12-20T13:09:20.239Z,100754.44
2022-12-20T13:11:52.308Z,100752.97
2022-12-20T13:14:50.976Z,100759.94
2022-12-20T13:17:49.243Z,100761.56
2022-12-20T13:20:19.705Z,100762.25
2022-12-20T13:23:17.417Z,100756.81
2022-12-20T13:25:46.585Z,100760.84
2022-12-20T13:28:45.852Z,100752.56
2022-12-20T13:31:33.697Z,100756.63
2022-12-20T13:34:04.119Z,100747.63
2022-12-20T13:36:39.253Z,100739.38
2022-12-20T13:39:33.310Z,100741.41
2022-12-20T13:42:35.521Z,100736.03
2022-12-20T13:45:04.030Z,100741.72
2022-12-20T13:47:40.167Z,100738.91
2022-12-20T13:50:33.140Z,100729.66
2022-12-20T13:53:01.243Z,100735.44
2022-12-20T13:55:37.395Z,100744.75
2022-12-20T13:58:11.854Z,100752.09
2022-12-20T14:00:39.871Z,100745.06
2022-12-20T14:03:20.571Z,100749.44
2022-12-20T14:05:50.107Z,100748.00
2022-12-20T14:08:19.136Z,100755.63
2022-12-20T14:10:47.026Z,100750.53
2022-12-20T14:13:20.615Z,100757.94
2022-12-20T14:15:48.693Z,100756.22
2022-12-20T14:18:21.099Z,100765.78
2022-12-20T14:20:51.447Z,100759.25
2022-12-20T14:23:20.810Z,100769.19
2022-12-20T14:25:49.481Z,100770.34
2022-12-20T14:28:27.581Z,100762.53
2022-12-20T14:30:56.352Z,100754.78
2022-12-20T14:33:28.902Z,100757.44
2022-12-20T14:35:59.969Z,100753.16
2022-12-20T14:38:30.787Z,100765.78
2022-12-20T14:40:58.843Z,100755.59
2022-12-20T14:43:29.084Z,100756.69
2022-12-20T14:46:15.165Z,100765.22
2022-12-20T14:48:43.653Z,100762.34
2022-12-20T14:51:12.981Z,100764.59
2022-12-20T14:53:40.951Z,100768.91
2022-12-20T14:56:15.390Z,100773.81
2022-12-20T14:58:43.303Z,100777.25
2022-12-20T15:01:21.937Z,100782.53
2022-12-20T15:03:51.688Z,100785.44
2022-12-20T15:06:34.794Z,100789.34
2022-12-20T15:09:02.764Z,100784.13
2022-12-20T15:11:31.040Z,100797.91
2022-12-20T15:13:59.264Z,100782.69
2022-12-20T15:16:29.187Z,100791.28
2022-12-20T15:18:58.465Z,100783.53
2022-12-20T15:21:30.326Z,100788.16
2022-12-20T15:24:00.995Z,100797.03
2022-12-20T15:26:29.132Z,100796.25
2022-12-20T15:28:57.639Z,100798.06
2022-12-20T15:31:32.483Z,100786.47
2022-12-20T15:34:02.521Z,100783.00
2022-12-20T15:36:30.869Z,100781.03
2022-12-20T15:39:12.656Z,100787.13
2022-12-20T15:41:42.760Z,100786.97
2022-12-20T15:44:13.668Z,100788.44
2022-12-20T15:46:41.656Z,100794.28
2022-12-20T15:49:14.183Z,100803.66
2022-12-20T15:51:44.245Z,100798.63
2022-12-20T15:54:19.814Z,100797.16
2022-12-20T15:56:47.727Z,100793.16
2022-12-20T15:59:48.882Z,100792.78
2022-12-20T16:02:03.858Z,100795.06
2022-12-20T16:04:31.863Z,100788.38
2022-12-20T16:06:59.738Z,100788.78
2022-12-20T16:09:29.040Z,100785.63
2022-12-20T16:11:57.179Z,100791.38
2022-12-20T16:14:27.339Z,100792.53
2022-12-20T16:16:55.249Z,100799.88
2022-12-20T16:19:23.181Z,100806.22
2022-12-20T16:21:51.965Z,100804.66
2022-12-20T16:24:22.011Z,100799.47
2022-12-20T16:26:51.643Z,100803.25
2022-12-20T16:29:19.560Z,100816.78
2022-12-20T16:31:47.545Z,100811.72
2022-12-20T16:34:16.385Z,100808.50
2022-12-20T16:36:44.297Z,100804.66
2022-12-20T16:39:12.206Z,100812.09
2022-12-20T16:41:41.002Z,100804.56
2022-12-20T16:44:14.202Z,100815.53
2022-12-20T16:46:42.220Z,100817.53
2022-12-20T16:49:14.999Z,100824.06
2022-12-20T16:51:47.743Z,100824.25
2022-12-20T16:54:19.771Z,100818.25
2022-12-20T16:56:48.525Z,100822.13
2022-12-20T16:59:20.600Z,100816.44
2022-12-20T17:01:49.941Z,100825.03
2022-12-20T17:04:18.635Z,100828.91
2022-12-20T17:06:46.853Z,100823.97
2022-12-20T17:12:01.723Z,100820.44
2022-12-20T17:14:31.076Z,100814.53
2022-12-20T17:16:59.893Z,100807.88
2022-12-20T17:19:27.897Z,100813.38
2022-12-20T17:24:41.501Z,100827.28
2022-12-20T17:27:10.542Z,100827.47
2022-12-20T17:29:40.968Z,100824.13
2022-12-20T17:32:18.372Z,100824.44
2022-12-20T17:34:46.482Z,100826.56
2022-12-20T17:37:14.447Z,100825.94
2022-12-20T17:39:42.381Z,100820.91
2022-12-20T17:42:10.705Z,100824.69
2022-12-20T17:44:40.511Z,100825.69
2022-12-20T17:47:08.388Z,100814.44
2022-12-20T17:49:36.271Z,100811.09
2022-12-20T17:52:04.477Z,100812.00
2022-12-20T17:54:39.736Z,100821.00
2022-12-20T17:57:11.293Z,100822.94
2022-12-20T17:59:40.589Z,100826.56
2022-12-20T18:02:22.297Z,100835.56
2022-12-20T18:04:50.804Z,100829.44
2022-12-20T18:07:18.751Z,100825.94
2022-12-20T18:09:48.035Z,100836.53
2022-12-20T18:12:15.982Z,100835.56
2022-12-20T18:14:45.705Z,100824.81
2022-12-20T18:17:13.713Z,100822.13
2022-12-20T18:19:44.355Z,100823.91
2022-12-20T18:22:12.822Z,100831.81
2022-12-20T18:24:40.784Z,100833.59
2022-12-20T18:27:08.836Z,100832.78
2022-12-20T18:29:36.739Z,100834.63
2022-12-20T18:32:06.776Z,100835.63
2022-12-20T18:34:34.836Z,100830.31
2022-12-20T18:37:05.497Z,100839.13
2022-12-20T18:39:33.603Z,100850.69
2022-12-20T18:42:01.537Z,100847.09
2022-12-20T18:44:29.615Z,100853.44
2022-12-20T18:46:57.598Z,100861.34
2022-12-20T18:49:27.519Z,100852.47
2022-12-20T18:51:55.382Z,100863.81
2022-12-20T18:54:23.305Z,100863.03
2022-12-20T18:56:51.378Z,100856.16
2022-12-20T18:59:21.256Z,100855.41
2022-12-20T19:01:49.382Z,100846.81
2022-12-20T19:04:24.095Z,100855.72
2022-12-20T19:06:54.024Z,100862.91
2022-12-20T19:09:22.041Z,100854.22
2022-12-20T19:11:56.348Z,100865.72
2022-12-20T19:14:24.757Z,100853.50
2022-12-20T19:16:52.956Z,100857.03
2022-12-20T19:19:21.303Z,100854.44
2022-12-20T19:21:49.240Z,100859.63
2022-12-20T19:24:18.528Z,100854.28
2022-12-20T19:26:46.417Z,100844.50
2022-12-20T19:29:14.469Z,100853.25
2022-12-20T19:31:42.470Z,100852.28
2022-12-20T19:34:12.516Z,100846.94
2022-12-20T19:36:41.346Z,100836.59
2022-12-20T19:39:13.776Z,100841.75
2022-12-20T19:41:43.118Z,100840.84
2022-12-20T19:44:11.029Z,100836.44
2022-12-20T19:46:39.241Z,100839.81
2022-12-20T19:49:07.271Z,100846.78
2022-12-20T19:51:35.143Z,100847.44
2022-12-20T19:54:03.103Z,100834.81
2022-12-20T19:56:32.416Z,100832.03
2022-12-20T19:59:01.700Z,100831.72
2022-12-20T20:01:29.867Z,100826.31
2022-12-20T20:03:58.882Z,100835.00
2022-12-20T20:06:27.005Z,100845.44
2022-12-20T20:08:57.578Z,100833.84
2022-12-20T20:11:25.830Z,100845.94
2022-12-20T20:13:53.781Z,100841.38
2022-12-20T20:16:23.864Z,100838.63
2022-12-20T20:18:51.866Z,100849.16
2022-12-20T20:21:22.409Z,100840.19
2022-12-20T20:23:50.638Z,100847.22
2022-12-20T20:26:19.863Z,100840.09
2022-12-20T20:28:47.779Z,100842.59
2022-12-20T20:31:16.966Z,100845.25
2022-12-20T20:33:46.794Z,100836.31
2022-12-20T20:36:15.532Z,100843.38
2022-12-20T20:38:43.445Z,100844.16
2022-12-20T20:41:11.428Z,100842.34
2022-12-20T20:43:39.336Z,100840.44
2022-12-20T20:46:08.147Z,100833.38
2022-12-20T20:48:36.207Z,100836.63
2022-12-20T20:51:05.801Z,100837.34
2022-12-20T20:53:34.501Z,100839.81
2022-12-20T20:56:02.717Z,100844.13
2022-12-20T20:58:30.658Z,100838.81
2022-12-20T21:00:58.917Z,100841.56
2022-12-20T21:03:27.352Z,100851.22
2022-12-20T21:08:44.746Z,100848.53
2022-12-20T21:11:13.195Z,100850.25
2022-12-20T21:13:41.308Z,100852.78
2022-12-20T21:16:09.835Z,100846.59
2022-12-20T21:18:37.823Z,100843.88
2022-12-20T21:21:09.457Z,100842.00
2022-12-20T21:23:37.485Z,100841.03
2022-12-20T21:26:07.552Z,100825.34
2022-12-20T21:28:35.692Z,100844.28
2022-12-20T21:31:05.533Z,100841.78
2022-12-20T21:33:33.680Z,100828.59
2022-12-20T21:36:02.283Z,100847.34
2022-12-20T21:38:30.254Z,100846.25
2022-12-20T21:41:02.033Z,100856.59
2022-12-20T21:43:31.348Z,100842.31
2022-12-20T21:45:59.260Z,100833.28
2022-12-20T21:48:27.376Z,100829.63
2022-12-20T21:51:02.042Z,100835.72
2022-12-20T21:53:30.110Z,100835.72
2022-12-20T21:55:58.315Z,100829.50
2022-12-20T21:58:26.478Z,100831.16
2022-12-20T22:00:56.026Z,100831.16
2022-12-20T22:03:24.479Z,100823.19
2022-12-20T22:05:53.988Z,100825.69
2022-12-20T22:08:22.173Z,100822.94
2022-12-20T22:10:50.840Z,100809.53
2022-12-20T22:13:18.811Z,100812.06
2022-12-20T22:15:46.693Z,100814.63
2022-12-20T22:18:15.947Z,100810.19
2022-12-20T22:20:45.301Z,100800.34
2022-12-20T22:23:13.224Z,100789.66
2022-12-20T22:25:41.151Z,100788.75
2022-12-20T22:28:09.123Z,100791.41
2022-12-20T22:30:40.725Z,100782.47
2022-12-20T22:33:08.652Z,100794.84
2022-12-20T22:35:38.073Z,100788.75
2022-12-20T22:38:06.394Z,100798.97
2022-12-20T22:40:34.281Z,100795.31
2022-12-20T22:43:02.218Z,100797.75
2022-12-20T22:45:30.328Z,100794.13
2022-12-20T22:47:58.295Z,100800.84
2022-12-20T22:50:26.295Z,100798.03
2022-12-20T22:52:55.554Z,100793.50
2022-12-20T22:55:23.531Z,100794.22
2022-12-20T22:57:51.429Z,100789.69
2022-12-20T23:00:19.790Z,100784.34
2022-12-20T23:02:47.878Z,100778.19
2022-12-20T23:05:15.926Z,100779.91
2022-12-20T23:07:43.821Z,100780.91
2022-12-20T23:10:34.559Z,100785.44
2022-12-20T23:13:20.086Z,100771.50
2022-12-20T23:15:48.345Z,100775.38
2022-12-20T23:18:16.272Z,100770.19
2022-12-20T23:21:01.460Z,100769.47
2022-12-20T23:23:29.329Z,100768.91
2022-12-20T23:26:09.238Z,100769.03
2022-12-20T23:28:37.164Z,100764.88
2022-12-20T23:31:05.578Z,100766.63
2022-12-20T23:33:33.607Z,100768.53
2022-12-20T23:36:01.793Z,100772.88
2022-12-20T23:38:32.281Z,100770.22
2022-12-20T23:41:01.602Z,100761.31
2022-12-20T23:43:30.685Z,100758.47
2022-12-20T23:46:03.850Z,100755.53
2022-12-20T23:48:32.183Z,100760.63
2022-12-20T23:51:00.150Z,100755.09
2022-12-20T23:53:28.043Z,100753.94
2022-12-20T23:56:01.680Z,100737.34
2022-12-20T23:58:29.605Z,100753.44
